sensor_id;sensor_type;location;lat;lon;timestamp;pressure;altitude;pressure_sealevel;temperature;humidity
21988;BME280;11158;53.404;-1.510;2023-02-20T00:00:00;101017.00;;;12.71;59.29
21988;BME280;11158;53.404;-1.510;2023-02-20T00:02:26;101013.00;;;13.26;57.87
21988;BME280;11158;53.404;-1.510;2023-02-20T00:04:52;101002.69;;;13.38;57.79
21988;BME280;11158;53.404;-1.510;2023-02-20T00:07:17;101010.91;;;12.24;60.97
21988;BME280;11158;53.404;-1.510;2023-02-20T00:09:43;101014.34;;;13.15;58.60
21988;BME280;11158;53.404;-1.510;2023-02-20T00:12:08;101004.91;;;13.19;58.17
21988;BME280;11158;53.404;-1.510;2023-02-20T00:14:34;100996.00;;;13.19;58.14
21988;BME280;11158;53.404;-1.510;2023-02-20T00:16:59;100989.31;;;12.41;60.75
21988;BME280;11158;53.404;-1.510;2023-02-20T00:19:25;100982.59;;;12.74;60.18
21988;BME280;11158;53.404;-1.510;2023-02-20T00:21:51;100988.88;;;12.52;60.25
21988;BME280;11158;53.404;-1.510;2023-02-20T00:24:18;100982.94;;;12.42;60.94
21988;BME280;11158;53.404;-1.510;2023-02-20T00:26:48;100979.47;;;12.86;59.86
21988;BME280;11158;53.404;-1.510;2023-02-20T00:29:15;100981.59;;;12.90;59.13
21988;BME280;11158;53.404;-1.510;2023-02-20T00:31:41;100969.44;;;13.39;57.75
21988;BME280;11158;53.404;-1.510;2023-02-20T00:34:07;100978.41;;;13.16;58.65
21988;BME280;11158;53.404;-1.510;2023-02-20T00:36:47;100967.81;;;13.08;58.52
21988;BME280;11158;53.404;-1.510;2023-02-20T00:39:13;100972.69;;;13.19;58.50
21988;BME280;11158;53.404;-1.510;2023-02-20T00:41:39;100959.94;;;13.79;56.50
21988;BME280;11158;53.404;-1.510;2023-02-20T00:44:06;100971.78;;;12.97;58.48
21988;BME280;11158;53.404;-1.510;2023-02-20T00:46:32;100976.69;;;12.79;59.51
21988;BME280;11158;53.404;-1.510;2023-02-20T00:48:58;100978.06;;;13.34;57.73
21988;BME280;11158;53.404;-1.510;2023-02-20T00:51:23;100961.69;;;13.29;58.50
21988;BME280;11158;53.404;-1.510;2023-02-20T00:53:49;100973.56;;;13.78;56.86
21988;BME280;11158;53.404;-1.510;2023-02-20T00:56:15;100965.88;;;13.53;57.22
21988;BME280;11158;53.404;-1.510;2023-02-20T00:58:40;100962.59;;;13.58;57.31
21988;BME280;11158;53.404;-1.510;2023-02-20T01:01:06;100964.03;;;13.75;57.01
21988;BME280;11158;53.404;-1.510;2023-02-20T01:03:32;100957.59;;;13.33;57.77
21988;BME280;11158;53.404;-1.510;2023-02-20T01:05:58;100950.91;;;13.87;56.94
21988;BME280;11158;53.404;-1.510;2023-02-20T01:08:23;100958.91;;;13.59;57.41
21988;BME280;11158;53.404;-1.510;2023-02-20T01:10:49;100959.97;;;13.43;58.36
21988;BME280;11158;53.404;-1.510;2023-02-20T01:13:15;100953.91;;;14.20;56.09
21988;BME280;11158;53.404;-1.510;2023-02-20T01:15:41;100955.28;;;13.00;58.93
21988;BME280;11158;53.404;-1.510;2023-02-20T01:18:06;100945.50;;;14.09;56.27
21988;BME280;11158;53.404;-1.510;2023-02-20T01:20:32;100932.38;;;14.49;55.03
21988;BME280;11158;53.404;-1.510;2023-02-20T01:22:58;100948.16;;;13.80;56.58
21988;BME280;11158;53.404;-1.510;2023-02-20T01:25:23;100940.28;;;14.00;56.09
21988;BME280;11158;53.404;-1.510;2023-02-20T01:27:49;100937.25;;;14.38;54.87
21988;BME280;11158;53.404;-1.510;2023-02-20T01:30:14;100939.41;;;14.50;54.17
21988;BME280;11158;53.404;-1.510;2023-02-20T01:32:40;100919.00;;;14.97;53.29
21988;BME280;11158;53.404;-1.510;2023-02-20T01:35:07;100925.09;;;14.71;53.94
21988;BME280;11158;53.404;-1.510;2023-02-20T01:37:33;100905.97;;;14.94;53.30
21988;BME280;11158;53.404;-1.510;2023-02-20T01:39:59;100923.25;;;14.15;55.50
21988;BME280;11158;53.404;-1.510;2023-02-20T01:42:29;100920.47;;;13.22;57.91
21988;BME280;11158;53.404;-1.510;2023-02-20T01:47:49;100911.13;;;13.18;58.58
21988;BME280;11158;53.404;-1.510;2023-02-20T01:50:17;100916.00;;;13.87;56.46
21988;BME280;11158;53.404;-1.510;2023-02-20T01:52:47;100913.88;;;12.58;59.57
21988;BME280;11158;53.404;-1.510;2023-02-20T01:55:25;100913.44;;;13.57;57.83
21988;BME280;11158;53.404;-1.510;2023-02-20T01:58:14;100910.25;;;13.47;57.39
21988;BME280;11158;53.404;-1.510;2023-02-20T02:00:42;100911.66;;;13.43;57.57
21988;BME280;11158;53.404;-1.510;2023-02-20T02:03:11;100908.91;;;14.08;55.60
21988;BME280;11158;53.404;-1.510;2023-02-20T02:05:39;100895.09;;;14.39;55.27
21988;BME280;11158;53.404;-1.510;2023-02-20T02:08:07;100891.03;;;14.91;53.41
21988;BME280;11158;53.404;-1.510;2023-02-20T02:10:49;100884.41;;;13.68;56.72
21988;BME280;11158;53.404;-1.510;2023-02-20T02:13:16;100884.91;;;13.35;57.90
21988;BME280;11158;53.404;-1.510;2023-02-20T02:15:42;100888.25;;;13.22;58.03
21988;BME280;11158;53.404;-1.510;2023-02-20T02:18:19;100868.31;;;13.68;56.38
21988;BME280;11158;53.404;-1.510;2023-02-20T02:32:34;100869.06;;;13.40;57.44
21988;BME280;11158;53.404;-1.510;2023-02-20T02:38:06;100859.91;;;14.06;55.74
21988;BME280;11158;53.404;-1.510;2023-02-20T02:43:19;100850.63;;;13.15;57.81
21988;BME280;11158;53.404;-1.510;2023-02-20T02:45:57;100849.75;;;12.93;57.87
21988;BME280;11158;53.404;-1.510;2023-02-20T02:51:01;100844.28;;;12.87;58.69
21988;BME280;11158;53.404;-1.510;2023-02-20T02:53:28;100842.34;;;12.95;58.33
21988;BME280;11158;53.404;-1.510;2023-02-20T02:55:53;100853.88;;;12.96;58.67
21988;BME280;11158;53.404;-1.510;2023-02-20T02:58:19;100846.63;;;12.90;58.72
21988;BME280;11158;53.404;-1.510;2023-02-20T03:00:52;100853.72;;;13.34;57.82
21988;BME280;11158;53.404;-1.510;2023-02-20T03:03:27;100849.94;;;13.28;57.26
21988;BME280;11158;53.404;-1.510;2023-02-20T03:05:56;100841.38;;;13.03;58.00
21988;BME280;11158;53.404;-1.510;2023-02-20T03:11:16;100854.09;;;12.94;58.89
21988;BME280;11158;53.404;-1.510;2023-02-20T03:13:56;100836.13;;;14.02;55.22
21988;BME280;11158;53.404;-1.510;2023-02-20T03:16:59;100836.63;;;12.84;58.50
21988;BME280;11158;53.404;-1.510;2023-02-20T03:19:32;100828.63;;;13.70;55.72
21988;BME280;11158;53.404;-1.510;2023-02-20T03:22:01;100835.50;;;13.29;57.10
21988;BME280;11158;53.404;-1.510;2023-02-20T03:24:30;100845.84;;;12.96;58.85
21988;BME280;11158;53.404;-1.510;2023-02-20T03:26:58;100841.25;;;13.48;57.13
21988;BME280;11158;53.404;-1.510;2023-02-20T03:29:34;100832.63;;;14.09;55.26
21988;BME280;11158;53.404;-1.510;2023-02-20T03:32:05;100819.97;;;14.37;54.29
21988;BME280;11158;53.404;-1.510;2023-02-20T03:34:51;100827.03;;;14.45;54.19
21988;BME280;11158;53.404;-1.510;2023-02-20T03:37:37;100827.00;;;14.73;52.86
21988;BME280;11158;53.404;-1.510;2023-02-20T03:40:25;100820.81;;;14.03;55.43
21988;BME280;11158;53.404;-1.510;2023-02-20T03:43:14;100817.59;;;13.36;57.07
21988;BME280;11158;53.404;-1.510;2023-02-20T03:46:01;100802.41;;;12.86;58.79
21988;BME280;11158;53.404;-1.510;2023-02-20T03:48:44;100811.94;;;13.10;58.08
21988;BME280;11158;53.404;-1.510;2023-02-20T03:51:11;100797.66;;;13.74;56.54
21988;BME280;11158;53.404;-1.510;2023-02-20T03:53:42;100784.88;;;14.11;54.52
21988;BME280;11158;53.404;-1.510;2023-02-20T03:56:17;100785.56;;;13.56;56.47
21988;BME280;11158;53.404;-1.510;2023-02-20T03:58:47;100781.22;;;13.90;55.08
21988;BME280;11158;53.404;-1.510;2023-02-20T04:01:18;100775.59;;;14.13;54.57
21988;BME280;11158;53.404;-1.510;2023-02-20T04:03:47;100772.59;;;14.30;54.02
21988;BME280;11158;53.404;-1.510;2023-02-20T04:06:16;100782.03;;;13.84;55.58
21988;BME280;11158;53.404;-1.510;2023-02-20T04:09:10;100786.63;;;13.62;56.52
21988;BME280;11158;53.404;-1.510;2023-02-20T04:11:42;100783.31;;;13.95;55.71
21988;BME280;11158;53.404;-1.510;2023-02-20T04:14:10;100779.78;;;13.31;56.81
21988;BME280;11158;53.404;-1.510;2023-02-20T04:16:46;100779.69;;;14.51;53.55
21988;BME280;11158;53.404;-1.510;2023-02-20T04:19:13;100776.34;;;13.44;56.11
21988;BME280;11158;53.404;-1.510;2023-02-20T04:21:43;100776.34;;;14.00;55.72
21988;BME280;11158;53.404;-1.510;2023-02-20T04:24:22;100765.41;;;14.43;53.75
21988;BME280;11158;53.404;-1.510;2023-02-20T04:26:49;100763.75;;;14.49;53.54
21988;BME280;11158;53.404;-1.510;2023-02-20T04:29:15;100748.66;;;13.72;55.66
21988;BME280;11158;53.404;-1.510;2023-02-20T04:31:41;100760.94;;;14.57;53.61
21988;BME280;11158;53.404;-1.510;2023-02-20T04:34:06;100751.34;;;14.48;53.68
21988;BME280;11158;53.404;-1.510;2023-02-20T04:36:32;100754.25;;;14.05;54.67
21988;BME280;11158;53.404;-1.510;2023-02-20T04:38:58;100763.69;;;12.95;57.66
21988;BME280;11158;53.404;-1.510;2023-02-20T04:41:23;100763.63;;;12.88;58.42
21988;BME280;11158;53.404;-1.510;2023-02-20T04:43:49;100768.44;;;12.78;58.81
21988;BME280;11158;53.404;-1.510;2023-02-20T04:46:34;100779.97;;;13.58;56.68
21988;BME280;11158;53.404;-1.510;2023-02-20T04:49:00;100769.28;;;14.34;54.33
21988;BME280;11158;53.404;-1.510;2023-02-20T04:51:25;100776.94;;;14.37;54.54
21988;BME280;11158;53.404;-1.510;2023-02-20T04:53:51;100765.81;;;13.71;55.45
21988;BME280;11158;53.404;-1.510;2023-02-20T04:56:16;100777.72;;;13.90;55.82
21988;BME280;11158;53.404;-1.510;2023-02-20T04:58:45;100777.41;;;14.41;54.25
21988;BME280;11158;53.404;-1.510;2023-02-20T05:01:11;100793.47;;;14.69;52.89
21988;BME280;11158;53.404;-1.510;2023-02-20T05:03:37;100783.91;;;14.60;53.33
21988;BME280;11158;53.404;-1.510;2023-02-20T05:06:03;100796.34;;;13.91;55.37
21988;BME280;11158;53.404;-1.510;2023-02-20T05:08:30;100800.50;;;13.23;57.52
21988;BME280;11158;53.404;-1.510;2023-02-20T05:10:56;100796.19;;;13.71;56.70
21988;BME280;11158;53.404;-1.510;2023-02-20T05:13:22;100789.00;;;14.07;55.54
21988;BME280;11158;53.404;-1.510;2023-02-20T05:15:47;100794.53;;;13.98;55.77
21988;BME280;11158;53.404;-1.510;2023-02-20T05:18:13;100788.53;;;14.93;52.87
21988;BME280;11158;53.404;-1.510;2023-02-20T05:20:38;100793.72;;;14.87;52.83
21988;BME280;11158;53.404;-1.510;2023-02-20T05:23:23;100793.66;;;14.68;52.41
21988;BME280;11158;53.404;-1.510;2023-02-20T05:25:48;100792.97;;;13.54;55.93
21988;BME280;11158;53.404;-1.510;2023-02-20T05:28:14;100795.16;;;14.00;55.36
21988;BME280;11158;53.404;-1.510;2023-02-20T05:30:39;100794.72;;;13.69;56.62
21988;BME280;11158;53.404;-1.510;2023-02-20T05:33:05;100796.69;;;13.81;56.10
21988;BME280;11158;53.404;-1.510;2023-02-20T05:35:30;100802.25;;;13.80;56.21
21988;BME280;11158;53.404;-1.510;2023-02-20T05:37:57;100802.63;;;14.05;55.31
21988;BME280;11158;53.404;-1.510;2023-02-20T05:40:22;100797.88;;;14.42;54.63
21988;BME280;11158;53.404;-1.510;2023-02-20T05:42:48;100796.91;;;12.94;58.47
21988;BME280;11158;53.404;-1.510;2023-02-20T05:45:14;100800.56;;;14.42;55.15
21988;BME280;11158;53.404;-1.510;2023-02-20T05:47:39;100810.22;;;14.64;54.30
21988;BME280;11158;53.404;-1.510;2023-02-20T05:50:05;100803.94;;;14.16;55.49
21988;BME280;11158;53.404;-1.510;2023-02-20T05:52:31;100800.84;;;14.19;55.26
21988;BME280;11158;53.404;-1.510;2023-02-20T05:54:56;100788.00;;;14.14;55.31
21988;BME280;11158;53.404;-1.510;2023-02-20T05:57:22;100790.41;;;13.68;57.04
21988;BME280;11158;53.404;-1.510;2023-02-20T05:59:48;100787.13;;;13.72;56.27
21988;BME280;11158;53.404;-1.510;2023-02-20T06:02:13;100799.50;;;14.01;56.26
21988;BME280;11158;53.404;-1.510;2023-02-20T06:04:39;100817.50;;;14.01;55.54
21988;BME280;11158;53.404;-1.510;2023-02-20T06:07:07;100819.69;;;13.91;56.57
21988;BME280;11158;53.404;-1.510;2023-02-20T06:09:34;100811.75;;;14.11;55.62
21988;BME280;11158;53.404;-1.510;2023-02-20T06:12:00;100795.78;;;13.25;58.26
21988;BME280;11158;53.404;-1.510;2023-02-20T06:14:26;100793.66;;;12.98;59.31
21988;BME280;11158;53.404;-1.510;2023-02-20T06:16:52;100819.53;;;13.43;57.53
21988;BME280;11158;53.404;-1.510;2023-02-20T06:19:22;100811.59;;;14.19;55.26
21988;BME280;11158;53.404;-1.510;2023-02-20T06:21:50;100810.31;;;14.50;54.78
21988;BME280;11158;53.404;-1.510;2023-02-20T06:24:16;100814.94;;;13.65;56.89
21988;BME280;11158;53.404;-1.510;2023-02-20T06:26:42;100813.06;;;14.56;54.73
21988;BME280;11158;53.404;-1.510;2023-02-20T06:29:08;100804.53;;;15.07;52.43
21988;BME280;11158;53.404;-1.510;2023-02-20T06:31:34;100809.66;;;13.50;56.75
21988;BME280;11158;53.404;-1.510;2023-02-20T06:33:59;100813.75;;;13.95;55.94
21988;BME280;11158;53.404;-1.510;2023-02-20T06:36:27;100813.47;;;14.18;55.38
21988;BME280;11158;53.404;-1.510;2023-02-20T06:38:54;100800.94;;;13.69;56.68
21988;BME280;11158;53.404;-1.510;2023-02-20T06:41:20;100809.13;;;13.89;55.79
21988;BME280;11158;53.404;-1.510;2023-02-20T06:43:45;100809.22;;;13.46;57.15
21988;BME280;11158;53.404;-1.510;2023-02-20T06:46:11;100795.81;;;13.74;56.82
21988;BME280;11158;53.404;-1.510;2023-02-20T06:48:51;100793.97;;;13.75;56.09
21988;BME280;11158;53.404;-1.510;2023-02-20T06:51:25;100810.84;;;13.26;57.48
21988;BME280;11158;53.404;-1.510;2023-02-20T06:53:51;100812.78;;;14.44;55.04
21988;BME280;11158;53.404;-1.510;2023-02-20T06:56:22;100805.66;;;14.30;54.70
21988;BME280;11158;53.404;-1.510;2023-02-20T06:58:50;100797.34;;;13.83;56.54
21988;BME280;11158;53.404;-1.510;2023-02-20T07:01:17;100802.38;;;13.72;56.86
21988;BME280;11158;53.404;-1.510;2023-02-20T07:03:45;100809.19;;;14.72;54.06
21988;BME280;11158;53.404;-1.510;2023-02-20T07:06:10;100802.03;;;14.51;54.31
21988;BME280;11158;53.404;-1.510;2023-02-20T07:08:36;100804.91;;;14.08;55.50
21988;BME280;11158;53.404;-1.510;2023-02-20T07:11:03;100806.75;;;13.73;56.51
21988;BME280;11158;53.404;-1.510;2023-02-20T07:13:28;100803.69;;;14.11;55.20
21988;BME280;11158;53.404;-1.510;2023-02-20T07:15:54;100806.59;;;13.53;56.78
21988;BME280;11158;53.404;-1.510;2023-02-20T07:18:19;100815.09;;;13.35;58.29
21988;BME280;11158;53.404;-1.510;2023-02-20T07:20:51;100810.72;;;13.77;56.69
21988;BME280;11158;53.404;-1.510;2023-02-20T07:23:17;100819.69;;;13.62;57.21
21988;BME280;11158;53.404;-1.510;2023-02-20T07:25:43;100816.25;;;14.32;55.32
21988;BME280;11158;53.404;-1.510;2023-02-20T07:28:08;100811.41;;;15.23;52.56
21988;BME280;11158;53.404;-1.510;2023-02-20T07:30:34;100808.84;;;13.49;57.32
21988;BME280;11158;53.404;-1.510;2023-02-20T07:33:00;100821.53;;;13.62;57.45
21988;BME280;11158;53.404;-1.510;2023-02-20T07:35:25;100808.84;;;14.06;56.61
21988;BME280;11158;53.404;-1.510;2023-02-20T07:37:51;100814.44;;;14.45;54.80
21988;BME280;11158;53.404;-1.510;2023-02-20T07:40:17;100813.16;;;14.83;54.11
21988;BME280;11158;53.404;-1.510;2023-02-20T07:42:42;100814.50;;;14.59;54.63
21988;BME280;11158;53.404;-1.510;2023-02-20T07:45:09;100820.09;;;13.38;57.10
21988;BME280;11158;53.404;-1.510;2023-02-20T07:47:34;100819.41;;;13.14;59.03
21988;BME280;11158;53.404;-1.510;2023-02-20T07:50:00;100822.91;;;14.08;55.95
21988;BME280;11158;53.404;-1.510;2023-02-20T07:52:26;100823.16;;;13.35;58.72
21988;BME280;11158;53.404;-1.510;2023-02-20T07:54:51;100834.16;;;14.24;55.74
21988;BME280;11158;53.404;-1.510;2023-02-20T07:57:17;100839.03;;;13.79;57.31
21988;BME280;11158;53.404;-1.510;2023-02-20T07:59:42;100831.69;;;13.88;57.05
21988;BME280;11158;53.404;-1.510;2023-02-20T08:02:08;100835.16;;;14.52;55.35
21988;BME280;11158;53.404;-1.510;2023-02-20T08:04:34;100841.63;;;13.66;57.45
21988;BME280;11158;53.404;-1.510;2023-02-20T08:06:59;100842.03;;;14.61;55.04
21988;BME280;11158;53.404;-1.510;2023-02-20T08:09:25;100843.88;;;13.91;56.97
21988;BME280;11158;53.404;-1.510;2023-02-20T08:11:51;100841.22;;;14.60;55.46
21988;BME280;11158;53.404;-1.510;2023-02-20T08:14:16;100843.63;;;14.14;56.83
21988;BME280;11158;53.404;-1.510;2023-02-20T08:16:42;100834.47;;;14.43;56.15
21988;BME280;11158;53.404;-1.510;2023-02-20T08:19:10;100853.28;;;14.36;56.30
21988;BME280;11158;53.404;-1.510;2023-02-20T08:21:36;100839.84;;;14.36;56.08
21988;BME280;11158;53.404;-1.510;2023-02-20T08:24:02;100825.81;;;14.41;56.30
21988;BME280;11158;53.404;-1.510;2023-02-20T08:26:27;100839.31;;;14.19;56.29
21988;BME280;11158;53.404;-1.510;2023-02-20T08:28:53;100844.00;;;14.11;57.16
21988;BME280;11158;53.404;-1.510;2023-02-20T08:31:19;100849.34;;;14.04;56.67
21988;BME280;11158;53.404;-1.510;2023-02-20T08:33:45;100862.19;;;14.09;57.48
21988;BME280;11158;53.404;-1.510;2023-02-20T08:36:11;100853.56;;;14.13;56.62
21988;BME280;11158;53.404;-1.510;2023-02-20T08:38:39;100856.31;;;14.27;56.90
21988;BME280;11158;53.404;-1.510;2023-02-20T08:41:07;100857.84;;;14.42;55.98
21988;BME280;11158;53.404;-1.510;2023-02-20T08:43:34;100856.44;;;14.46;56.30
21988;BME280;11158;53.404;-1.510;2023-02-20T08:46:00;100861.91;;;15.08;54.57
21988;BME280;11158;53.404;-1.510;2023-02-20T08:48:26;100853.34;;;14.50;56.61
21988;BME280;11158;53.404;-1.510;2023-02-20T08:50:52;100846.81;;;14.65;55.61
21988;BME280;11158;53.404;-1.510;2023-02-20T08:53:17;100851.19;;;14.66;55.93
21988;BME280;11158;53.404;-1.510;2023-02-20T08:55:43;100849.31;;;14.67;55.99
21988;BME280;11158;53.404;-1.510;2023-02-20T08:58:09;100860.41;;;14.51;56.05
21988;BME280;11158;53.404;-1.510;2023-02-20T09:00:35;100859.88;;;14.34;56.67
21988;BME280;11158;53.404;-1.510;2023-02-20T09:03:00;100873.63;;;13.89;58.79
21988;BME280;11158;53.404;-1.510;2023-02-20T09:05:26;100842.19;;;13.61;59.02
21988;BME280;11158;53.404;-1.510;2023-02-20T09:07:52;100864.41;;;13.98;58.39
21988;BME280;11158;53.404;-1.510;2023-02-20T09:10:18;100865.69;;;14.37;57.15
21988;BME280;11158;53.404;-1.510;2023-02-20T09:12:45;100859.41;;;15.13;55.28
21988;BME280;11158;53.404;-1.510;2023-02-20T09:15:11;100873.94;;;14.64;56.31
21988;BME280;11158;53.404;-1.510;2023-02-20T09:17:38;100878.25;;;13.31;59.95
21988;BME280;11158;53.404;-1.510;2023-02-20T09:20:04;100882.66;;;13.02;61.17
21988;BME280;11158;53.404;-1.510;2023-02-20T09:22:34;100879.41;;;13.86;59.24
21988;BME280;11158;53.404;-1.510;2023-02-20T09:24:59;100879.50;;;13.99;58.99
21988;BME280;11158;53.404;-1.510;2023-02-20T09:27:25;100876.31;;;14.45;57.02
21988;BME280;11158;53.404;-1.510;2023-02-20T09:29:51;100879.59;;;15.64;54.18
21988;BME280;11158;53.404;-1.510;2023-02-20T09:32:16;100879.97;;;14.66;56.70
21988;BME280;11158;53.404;-1.510;2023-02-20T09:34:42;100884.66;;;14.99;55.59
21988;BME280;11158;53.404;-1.510;2023-02-20T09:37:09;100889.38;;;14.90;55.87
21988;BME280;11158;53.404;-1.510;2023-02-20T09:39:35;100891.97;;;14.70;56.51
21988;BME280;11158;53.404;-1.510;2023-02-20T09:50:17;100884.47;;;15.14;55.25
21988;BME280;11158;53.404;-1.510;2023-02-20T09:53:05;100871.84;;;15.07;55.86
21988;BME280;11158;53.404;-1.510;2023-02-20T09:55:35;100885.88;;;13.70;59.13
21988;BME280;11158;53.404;-1.510;2023-02-20T09:58:03;100877.44;;;14.58;57.13
21988;BME280;11158;53.404;-1.510;2023-02-20T10:00:33;100879.50;;;14.28;58.17
21988;BME280;11158;53.404;-1.510;2023-02-20T10:03:35;100870.44;;;14.35;57.14
21988;BME280;11158;53.404;-1.510;2023-02-20T10:06:17;100868.16;;;13.76;59.27
21988;BME280;11158;53.404;-1.510;2023-02-20T10:08:46;100880.97;;;14.02;59.13
21988;BME280;11158;53.404;-1.510;2023-02-20T10:16:50;100874.22;;;15.57;54.92
21988;BME280;11158;53.404;-1.510;2023-02-20T10:19:39;100875.66;;;15.46;55.57
21988;BME280;11158;53.404;-1.510;2023-02-20T10:22:13;100887.53;;;14.97;56.68
21988;BME280;11158;53.404;-1.510;2023-02-20T10:25:07;100894.88;;;14.69;57.46
21988;BME280;11158;53.404;-1.510;2023-02-20T10:30:26;100885.22;;;15.62;55.46
21988;BME280;11158;53.404;-1.510;2023-02-20T10:33:05;100883.75;;;14.78;57.87
21988;BME280;11158;53.404;-1.510;2023-02-20T10:35:52;100887.47;;;14.84;58.00
21988;BME280;11158;53.404;-1.510;2023-02-20T10:38:25;100897.50;;;15.72;54.76
21988;BME280;11158;53.404;-1.510;2023-02-20T10:43:51;100894.44;;;14.37;58.54
21988;BME280;11158;53.404;-1.510;2023-02-20T10:49:22;100902.16;;;14.46;59.19
21988;BME280;11158;53.404;-1.510;2023-02-20T10:51:50;100890.25;;;15.92;55.34
21988;BME280;11158;53.404;-1.510;2023-02-20T10:54:24;100892.16;;;15.10;56.85
21988;BME280;11158;53.404;-1.510;2023-02-20T10:59:59;100879.78;;;14.39;60.38
21988;BME280;11158;53.404;-1.510;2023-02-20T11:02:33;100874.28;;;15.02;57.76
21988;BME280;11158;53.404;-1.510;2023-02-20T11:05:07;100869.44;;;14.36;59.85
21988;BME280;11158;53.404;-1.510;2023-02-20T11:07:34;100870.06;;;14.73;58.73
21988;BME280;11158;53.404;-1.510;2023-02-20T11:10:00;100870.28;;;14.78;57.80
21988;BME280;11158;53.404;-1.510;2023-02-20T11:15:06;100891.31;;;15.16;57.04
21988;BME280;11158;53.404;-1.510;2023-02-20T11:17:32;100885.38;;;14.79;58.35
21988;BME280;11158;53.404;-1.510;2023-02-20T11:20:01;100881.59;;;15.15;57.53
21988;BME280;11158;53.404;-1.510;2023-02-20T11:22:40;100883.25;;;15.23;56.96
21988;BME280;11158;53.404;-1.510;2023-02-20T11:27:47;100873.25;;;15.72;55.22
21988;BME280;11158;53.404;-1.510;2023-02-20T11:32:41;100873.00;;;16.26;53.69
21988;BME280;11158;53.404;-1.510;2023-02-20T11:37:46;100873.19;;;15.65;55.74
21988;BME280;11158;53.404;-1.510;2023-02-20T11:40:16;100874.34;;;15.22;56.74
21988;BME280;11158;53.404;-1.510;2023-02-20T11:42:45;100870.31;;;16.20;54.41
21988;BME280;11158;53.404;-1.510;2023-02-20T11:45:24;100866.81;;;15.86;54.66
21988;BME280;11158;53.404;-1.510;2023-02-20T11:48:12;100856.22;;;15.98;54.88
21988;BME280;11158;53.404;-1.510;2023-02-20T11:50:41;100861.19;;;15.94;54.69
21988;BME280;11158;53.404;-1.510;2023-02-20T11:55:42;100862.78;;;16.28;54.17
21988;BME280;11158;53.404;-1.510;2023-02-20T11:58:27;100857.47;;;16.87;52.14
21988;BME280;11158;53.404;-1.510;2023-02-20T12:00:54;100844.22;;;17.17;51.57
21988;BME280;11158;53.404;-1.510;2023-02-20T12:03:25;100841.94;;;16.62;52.15
21988;BME280;11158;53.404;-1.510;2023-02-20T12:05:53;100847.84;;;16.32;53.78
21988;BME280;11158;53.404;-1.510;2023-02-20T12:08:35;100830.34;;;16.62;52.29
21988;BME280;11158;53.404;-1.510;2023-02-20T12:11:11;100850.16;;;16.29;53.52
21988;BME280;11158;53.404;-1.510;2023-02-20T12:13:44;100850.34;;;15.27;56.30
21988;BME280;11158;53.404;-1.510;2023-02-20T12:19:24;100842.94;;;16.09;53.93
21988;BME280;11158;53.404;-1.510;2023-02-20T12:35:34;100816.81;;;17.13;51.44
21988;BME280;11158;53.404;-1.510;2023-02-20T12:49:53;100807.78;;;17.26;51.34
21988;BME280;11158;53.404;-1.510;2023-02-20T13:01:20;100821.47;;;18.07;49.50
21988;BME280;11158;53.404;-1.510;2023-02-20T13:03:58;100825.63;;;17.02;51.33
21988;BME280;11158;53.404;-1.510;2023-02-20T13:06:37;100825.28;;;16.85;52.04
21988;BME280;11158;53.404;-1.510;2023-02-20T13:09:19;100826.53;;;17.21;51.20
21988;BME280;11158;53.404;-1.510;2023-02-20T13:11:49;100824.53;;;16.51;52.38
21988;BME280;11158;53.404;-1.510;2023-02-20T13:16:53;100830.78;;;16.52;53.45
21988;BME280;11158;53.404;-1.510;2023-02-20T13:19:32;100819.38;;;17.58;51.08
21988;BME280;11158;53.404;-1.510;2023-02-20T13:22:00;100822.41;;;18.00;49.17
21988;BME280;11158;53.404;-1.510;2023-02-20T13:24:30;100816.53;;;18.22;48.56
21988;BME280;11158;53.404;-1.510;2023-02-20T13:27:02;100825.69;;;18.03;48.75
21988;BME280;11158;53.404;-1.510;2023-02-20T13:29:33;100818.56;;;17.58;49.87
21988;BME280;11158;53.404;-1.510;2023-02-20T13:32:21;100820.03;;;17.29;50.82
21988;BME280;11158;53.404;-1.510;2023-02-20T13:34:48;100825.66;;;16.95;51.69
21988;BME280;11158;53.404;-1.510;2023-02-20T13:37:50;100822.31;;;17.00;52.01
21988;BME280;11158;53.404;-1.510;2023-02-20T13:45:42;100827.34;;;17.53;50.41
21988;BME280;11158;53.404;-1.510;2023-02-20T13:56:24;100817.81;;;16.22;52.97
21988;BME280;11158;53.404;-1.510;2023-02-20T13:58:50;100814.59;;;16.59;52.42
21988;BME280;11158;53.404;-1.510;2023-02-20T14:01:18;100821.31;;;16.23;54.02
21988;BME280;11158;53.404;-1.510;2023-02-20T14:03:59;100813.50;;;15.95;54.27
21988;BME280;11158;53.404;-1.510;2023-02-20T14:06:24;100819.25;;;16.25;53.95
21988;BME280;11158;53.404;-1.510;2023-02-20T14:09:06;100820.72;;;16.07;54.14
21988;BME280;11158;53.404;-1.510;2023-02-20T14:11:36;100817.81;;;16.81;52.47
21988;BME280;11158;53.404;-1.510;2023-02-20T14:14:07;100827.47;;;17.02;51.14
21988;BME280;11158;53.404;-1.510;2023-02-20T14:16:36;100812.59;;;16.34;53.47
21988;BME280;11158;53.404;-1.510;2023-02-20T14:19:13;100815.94;;;15.29;56.59
21988;BME280;11158;53.404;-1.510;2023-02-20T14:21:41;100811.78;;;16.27;53.35
21988;BME280;11158;53.404;-1.510;2023-02-20T14:24:17;100802.56;;;16.54;52.60
21988;BME280;11158;53.404;-1.510;2023-02-20T14:26:44;100806.25;;;15.75;55.19
21988;BME280;11158;53.404;-1.510;2023-02-20T14:29:25;100813.06;;;16.04;54.74
21988;BME280;11158;53.404;-1.510;2023-02-20T14:31:53;100808.19;;;16.46;52.91
21988;BME280;11158;53.404;-1.510;2023-02-20T14:36:47;100817.63;;;15.64;55.36
21988;BME280;11158;53.404;-1.510;2023-02-20T14:42:02;100820.31;;;16.10;54.09
21988;BME280;11158;53.404;-1.510;2023-02-20T14:44:29;100824.69;;;15.52;55.25
21988;BME280;11158;53.404;-1.510;2023-02-20T14:47:16;100813.84;;;15.05;57.13
21988;BME280;11158;53.404;-1.510;2023-02-20T14:49:43;100806.06;;;16.55;53.50
21988;BME280;11158;53.404;-1.510;2023-02-20T14:54:36;100807.00;;;17.19;51.29
21988;BME280;11158;53.404;-1.510;2023-02-20T14:57:03;100813.22;;;16.36;53.65